Time;durP1;ratioP1;P1;durP2;ratioP2;P2;SDS_P1;SDS_P2;PMS_P1;PMS_P2;Temp;Humidity;BMP_temperature;BMP_pressure;BME280_temperature;BME280_humidity;BME280_pressure;Samples;Min_cycle;Max_cycle;Signal;HPM_P1;HPM_P2
2021/03/13 00:01:49;;;;;;;3.78;1.42;;;;;;;7.66;70.22;96341.81;5041665;28;20039;-78
2021/03/13 00:04:15;;;;;;;2.30;1.45;;;;;;;7.78;70.37;96349.44;5029944;28;20029;-79
2021/03/13 00:06:41;;;;;;;2.25;1.45;;;;;;;7.84;69.41;96345.06;4998825;28;20514;-78
2021/03/13 00:09:06;;;;;;;1.95;1.02;;;;;;;7.70;69.86;96342.09;5031231;28;20044;-79
2021/03/13 00:11:32;;;;;;;4.15;1.30;;;;;;;7.92;69.62;96334.25;5020349;28;20375;-78
2021/03/13 00:13:57;;;;;;;5.38;1.85;;;;;;;7.88;69.17;96336.56;5028478;28;20033;-78
2021/03/13 00:16:23;;;;;;;3.95;1.50;;;;;;;7.87;69.20;96331.63;4997824;28;20033;-78
2021/03/13 00:18:48;;;;;;;3.38;1.58;;;;;;;8.10;68.50;96337.50;5009493;28;20328;-79
2021/03/13 00:21:14;;;;;;;2.75;1.20;;;;;;;7.84;69.01;96342.47;5010749;28;20048;-78
2021/03/13 00:23:39;;;;;;;4.60;1.80;;;;;;;8.15;69.07;96329.75;5013764;28;20036;-79
2021/03/13 00:26:05;;;;;;;3.88;1.30;;;;;;;8.36;68.27;96331.44;5010270;28;20063;-79
2021/03/13 00:28:30;;;;;;;2.40;1.02;;;;;;;8.25;68.89;96322.03;5012684;28;20029;-78
2021/03/13 00:30:56;;;;;;;4.53;1.30;;;;;;;7.87;70.06;96319.44;5038255;28;20021;-79
2021/03/13 00:33:25;;;;;;;2.38;1.35;;;;;;;7.68;71.11;96319.03;5010206;28;20028;-79
2021/03/13 00:35:52;;;;;;;4.38;1.00;;;;;;;7.83;69.62;96315.78;5015653;28;20047;-78
2021/03/13 00:38:19;;;;;;;1.92;1.13;;;;;;;8.23;68.55;96316.31;5032474;28;20395;-78
2021/03/13 00:40:46;;;;;;;3.00;1.33;;;;;;;7.95;68.82;96304.44;5011854;28;20032;-79
2021/03/13 00:43:13;;;;;;;2.08;0.80;;;;;;;7.96;69.19;96317.16;5031532;28;20542;-78
2021/03/13 00:45:39;;;;;;;3.58;1.10;;;;;;;8.07;68.90;96316.22;5031994;28;20029;-79
2021/03/13 00:48:05;;;;;;;2.17;0.75;;;;;;;7.65;70.22;96308.38;5015623;28;20395;-78
2021/03/13 00:50:32;;;;;;;1.90;0.80;;;;;;;8.07;68.48;96312.81;5030186;28;20547;-78
2021/03/13 00:52:58;;;;;;;1.88;0.70;;;;;;;8.00;69.16;96289.75;5015053;28;20025;-79
2021/03/13 00:55:23;;;;;;;1.52;0.90;;;;;;;8.13;68.37;96304.06;5025307;28;20048;-79
2021/03/13 00:57:51;;;;;;;2.70;1.33;;;;;;;8.10;68.66;96296.00;4995453;28;20033;-80
2021/03/13 01:00:20;;;;;;;4.43;1.48;;;;;;;8.21;68.71;96300.25;5010529;28;20121;-79
2021/03/13 01:02:46;;;;;;;2.00;1.30;;;;;;;8.22;69.04;96302.56;4988796;28;20039;-80
2021/03/13 01:05:12;;;;;;;4.68;1.20;;;;;;;8.25;68.44;96290.91;5017165;28;20481;-79
2021/03/13 01:07:38;;;;;;;2.20;1.42;;;;;;;8.33;68.59;96285.25;5014261;28;20060;-80
2021/03/13 01:10:12;;;;;;;2.55;1.17;;;;;;;8.03;68.60;96281.44;4995341;28;20036;-80
2021/03/13 01:12:43;;;;;;;5.30;1.60;;;;;;;7.81;69.75;96278.19;4992811;28;20032;-79
2021/03/13 01:15:12;;;;;;;3.33;1.63;;;;;;;8.13;69.47;96279.97;5020283;28;20025;-79
2021/03/13 01:17:37;;;;;;;4.50;1.40;;;;;;;8.11;69.76;96274.25;5026211;28;20063;-79
2021/03/13 01:20:06;;;;;;;3.72;1.83;;;;;;;8.05;69.34;96274.22;5009779;28;20501;-79
2021/03/13 01:22:32;;;;;;;4.28;1.52;;;;;;;8.27;69.35;96260.31;5031952;28;20033;-80
2021/03/13 01:24:57;;;;;;;3.05;1.35;;;;;;;8.30;69.28;96259.81;5015398;28;20159;-80
2021/03/13 01:27:23;;;;;;;2.33;1.50;;;;;;;8.22;70.39;96257.69;5031948;28;20033;-79
2021/03/13 01:29:48;;;;;;;2.20;1.38;;;;;;;8.55;68.57;96253.22;5031735;28;20060;-80
2021/03/13 01:32:13;;;;;;;2.88;1.17;;;;;;;8.41;69.31;96243.28;5012709;28;20052;-79
2021/03/13 01:34:39;;;;;;;3.38;1.30;;;;;;;8.57;68.54;96238.97;4997219;28;20059;-79
2021/03/13 01:37:05;;;;;;;4.03;1.20;;;;;;;8.73;67.66;96255.34;5024939;28;20036;-79
2021/03/13 01:39:30;;;;;;;2.97;0.90;;;;;;;8.75;67.47;96244.72;5011951;28;20040;-79
2021/03/13 01:41:56;;;;;;;5.60;1.48;;;;;;;8.83;67.46;96249.44;5014272;28;20413;-80
2021/03/13 01:44:21;;;;;;;1.98;1.10;;;;;;;8.79;66.74;96241.38;5024408;28;20021;-80
2021/03/13 01:46:47;;;;;;;2.85;0.93;;;;;;;8.78;67.67;96245.00;5030990;28;20029;-79
2021/03/13 01:49:29;;;;;;;5.18;1.25;;;;;;;8.37;68.03;96234.44;5030485;28;20037;-80
2021/03/13 01:51:55;;;;;;;3.25;1.23;;;;;;;8.67;67.69;96233.03;4998944;28;20033;-80
2021/03/13 01:54:20;;;;;;;2.65;0.82;;;;;;;8.45;68.70;96230.63;5031945;28;20044;-80
2021/03/13 01:56:48;;;;;;;1.83;0.63;;;;;;;8.22;69.17;96211.03;5015019;28;20082;-80
2021/03/13 01:59:18;;;;;;;1.65;0.80;;;;;;;8.36;68.49;96217.34;4996532;28;20029;-80
2021/03/13 02:01:44;;;;;;;0.85;0.50;;;;;;;8.60;68.09;96209.13;5004932;28;20045;-79
2021/03/13 02:04:10;;;;;;;3.55;0.75;;;;;;;8.21;68.94;96194.69;5027475;22;20705;-79
2021/03/13 02:06:37;;;;;;;1.83;0.70;;;;;;;8.41;68.41;96201.78;4988908;28;20071;-79
2021/03/13 02:09:10;;;;;;;1.38;0.52;;;;;;;8.65;68.37;96198.75;4997406;28;20045;-77
2021/03/13 02:12:00;;;;;;;2.30;0.60;;;;;;;8.47;68.09;96196.66;5012425;28;20086;-78
2021/03/13 02:15:11;;;;;;;1.25;0.70;;;;;;;8.39;68.08;96183.09;5041959;28;20043;-78
2021/03/13 02:17:54;;;;;;;2.63;0.77;;;;;;;8.27;69.35;96177.34;4971237;28;20066;-78
2021/03/13 02:20:46;;;;;;;2.45;0.80;;;;;;;8.00;69.96;96173.09;4967479;28;20047;-78
2021/03/13 02:23:13;;;;;;;3.65;1.13;;;;;;;8.41;68.62;96165.47;4961718;28;20066;-77
2021/03/13 02:25:45;;;;;;;1.98;0.73;;;;;;;8.46;68.91;96159.53;4972948;28;20035;-78
2021/03/13 02:28:19;;;;;;;3.03;0.65;;;;;;;8.33;68.76;96158.19;4974369;28;20038;-78
2021/03/13 02:30:46;;;;;;;2.45;1.35;;;;;;;8.62;68.34;96155.94;4951803;28;20039;-78
2021/03/13 02:33:12;;;;;;;3.85;1.48;;;;;;;8.51;69.25;96140.63;4939430;28;20054;-78
2021/03/13 02:35:40;;;;;;;2.15;1.23;;;;;;;8.41;68.59;96136.94;4987881;28;20038;-77
2021/03/13 02:38:14;;;;;;;3.72;1.10;;;;;;;8.42;68.88;96142.91;4969594;28;20099;-78
2021/03/13 02:40:40;;;;;;;1.77;0.90;;;;;;;8.50;69.49;96139.03;4969867;28;20035;-78
2021/03/13 02:43:10;;;;;;;2.17;0.75;;;;;;;8.25;70.07;96125.72;4985345;28;20043;-78
2021/03/13 02:45:42;;;;;;;6.28;1.00;;;;;;;7.98;69.88;96123.28;4972690;28;20018;-79
2021/03/13 02:48:10;;;;;;;3.45;0.60;;;;;;;8.18;70.11;96116.63;4994721;28;20049;-77
2021/03/13 02:50:38;;;;;;;2.60;0.68;;;;;;;8.12;69.56;96118.41;4997426;28;20025;-78
2021/03/13 02:53:05;;;;;;;2.28;0.50;;;;;;;8.47;68.56;96118.81;5030250;28;20190;-77
2021/03/13 02:55:31;;;;;;;2.33;1.00;;;;;;;8.38;70.11;96115.91;5013502;28;20030;-78
2021/03/13 02:57:59;;;;;;;2.28;0.73;;;;;;;8.02;70.17;96118.38;5033261;28;20036;-77
2021/03/13 03:00:32;;;;;;;1.88;0.40;;;;;;;8.25;69.51;96112.00;5014720;28;20040;-79
2021/03/13 03:02:58;;;;;;;1.70;0.40;;;;;;;8.42;68.61;96109.97;4998701;28;20033;-77
2021/03/13 03:05:26;;;;;;;1.67;1.02;;;;;;;8.31;68.69;96110.97;5007119;28;20112;-78
2021/03/13 03:07:54;;;;;;;1.90;0.20;;;;;;;8.07;69.85;96103.63;5016885;28;20227;-78
2021/03/13 03:10:26;;;;;;;1.25;0.30;;;;;;;8.05;69.25;96107.50;5015350;28;20035;-77
2021/03/13 03:12:53;;;;;;;2.58;0.50;;;;;;;8.23;69.14;96088.13;4998513;28;20036;-79
2021/03/13 03:15:22;;;;;;;1.60;0.50;;;;;;;7.65;71.51;96098.53;4997178;28;20614;-78
2021/03/13 03:17:49;;;;;;;2.42;0.50;;;;;;;7.99;70.26;96091.16;5034480;28;20301;-78
2021/03/13 03:20:16;;;;;;;3.55;1.10;;;;;;;7.77;71.18;96070.59;5031510;28;20022;-78
2021/03/13 03:22:43;;;;;;;2.95;0.80;;;;;;;7.93;71.21;96086.97;5001215;28;20025;-78
2021/03/13 03:25:09;;;;;;;1.08;0.40;;;;;;;7.75;71.86;96077.09;5001418;28;20251;-78
2021/03/13 03:27:49;;;;;;;1.95;0.60;;;;;;;8.13;70.39;96082.91;5051840;28;20090;-79
2021/03/13 03:30:36;;;;;;;2.97;0.80;;;;;;;7.40;72.69;96066.31;5016457;28;20045;-78
2021/03/13 03:33:03;;;;;;;1.98;0.88;;;;;;;7.97;70.78;96077.69;5033832;28;20029;-80
2021/03/13 03:35:29;;;;;;;2.22;0.63;;;;;;;7.55;72.12;96057.81;5032785;28;20392;-79
2021/03/13 03:37:58;;;;;;;2.63;0.60;;;;;;;8.28;70.13;96064.81;5016632;28;20047;-78
2021/03/13 03:40:26;;;;;;;4.22;0.90;;;;;;;8.48;69.23;96074.44;5034252;28;20037;-78
2021/03/13 03:43:10;;;;;;;3.80;0.75;;;;;;;7.83;71.26;96061.03;5017214;28;20036;-79
2021/03/13 03:45:37;;;;;;;5.15;0.93;;;;;;;8.18;69.97;96044.03;5014831;28;20029;-79
2021/03/13 03:48:07;;;;;;;2.05;0.60;;;;;;;8.10;70.33;96052.31;5033922;28;20067;-77
2021/03/13 03:50:33;;;;;;;2.92;0.82;;;;;;;8.37;69.98;96063.25;5033911;28;20025;-78
2021/03/13 03:53:00;;;;;;;2.00;0.93;;;;;;;8.33;70.04;96036.28;5017920;28;20037;-78
2021/03/13 03:55:26;;;;;;;5.97;1.00;;;;;;;8.31;71.03;96048.75;5016455;28;20056;-78
2021/03/13 03:57:54;;;;;;;3.28;1.00;;;;;;;8.36;70.27;96051.34;5000313;28;20032;-77
2021/03/13 04:00:22;;;;;;;2.65;0.57;;;;;;;8.34;70.53;96047.44;5017559;28;20068;-78
2021/03/13 04:02:49;;;;;;;3.42;1.90;;;;;;;8.34;71.15;96050.78;5016687;28;20025;-77
2021/03/13 04:05:17;;;;;;;8.05;1.70;;;;;;;8.27;70.78;96045.09;4996983;28;20032;-81
2021/03/13 04:07:43;;;;;;;5.20;1.08;;;;;;;8.66;70.15;96049.06;5031809;28;20037;-79
2021/03/13 04:10:10;;;;;;;3.97;1.08;;;;;;;8.80;69.60;96053.44;5000514;28;20025;-78
2021/03/13 04:12:39;;;;;;;4.95;1.02;;;;;;;8.70;69.34;96042.28;5031466;28;20065;-78
2021/03/13 04:15:08;;;;;;;5.60;1.80;;;;;;;8.46;70.59;96031.66;4999832;28;20053;-77
2021/03/13 04:17:39;;;;;;;4.93;0.90;;;;;;;8.40;70.64;96036.81;5000286;28;20509;-78
2021/03/13 04:20:07;;;;;;;8.95;1.60;;;;;;;8.74;69.71;96049.31;5015910;28;20036;-77
2021/03/13 04:22:36;;;;;;;8.68;1.33;;;;;;;8.39;70.94;96048.22;5000214;28;20051;-78
2021/03/13 04:25:05;;;;;;;8.13;1.38;;;;;;;8.18;71.53;96031.06;5016197;28;20356;-78
2021/03/13 04:27:31;;;;;;;3.63;0.82;;;;;;;8.36;71.35;96025.41;5022785;28;20380;-78
2021/03/13 04:29:57;;;;;;;5.55;0.93;;;;;;;8.03;72.52;96018.84;5008055;28;20522;-77
2021/03/13 04:32:25;;;;;;;4.60;1.08;;;;;;;8.24;71.50;96019.66;5031269;28;20029;-78
2021/03/13 04:34:52;;;;;;;10.13;2.45;;;;;;;7.89;72.46;96000.41;5015891;28;20387;-77
2021/03/13 04:37:18;;;;;;;10.45;2.22;;;;;;;8.22;71.85;96001.00;5016179;28;20369;-78
2021/03/13 04:39:45;;;;;;;4.72;1.10;;;;;;;8.56;70.70;95998.69;5010376;28;20083;-76
2021/03/13 04:42:13;;;;;;;5.60;1.60;;;;;;;8.59;70.53;96005.19;4998040;28;20119;-77
2021/03/13 04:44:39;;;;;;;4.47;1.15;;;;;;;8.55;70.65;95985.97;5025230;28;20222;-77
2021/03/13 04:47:05;;;;;;;3.97;0.90;;;;;;;8.33;70.80;95999.97;5029206;28;20443;-78
2021/03/13 04:49:32;;;;;;;9.02;1.00;;;;;;;8.47;70.57;95971.75;5012506;28;20041;-77
2021/03/13 04:52:02;;;;;;;3.28;1.10;;;;;;;8.20;71.53;95971.94;4998921;28;20052;-77
2021/03/13 04:54:28;;;;;;;7.38;1.23;;;;;;;8.18;71.64;95950.69;4998817;28;20028;-78
2021/03/13 04:56:53;;;;;;;4.53;1.02;;;;;;;8.50;71.01;95962.63;5028681;28;20525;-76
2021/03/13 04:59:19;;;;;;;5.53;1.05;;;;;;;8.16;71.45;95965.75;5015721;28;20316;-77
2021/03/13 05:01:45;;;;;;;5.07;1.40;;;;;;;8.48;70.80;95956.94;5049943;28;20068;-77
2021/03/13 05:04:10;;;;;;;3.53;1.75;;;;;;;8.48;70.37;95954.34;5018196;28;20073;-77
2021/03/13 05:06:35;;;;;;;3.53;0.73;;;;;;;7.99;72.36;95940.81;5015358;28;20040;-78
2021/03/13 05:09:01;;;;;;;5.60;0.93;;;;;;;8.33;71.65;95934.34;5012342;28;20041;-78
2021/03/13 05:11:26;;;;;;;3.80;0.82;;;;;;;8.23;71.32;95943.69;5032011;28;20025;-78
2021/03/13 05:13:52;;;;;;;1.98;0.95;;;;;;;7.97;72.43;95934.34;5013163;28;20478;-78
2021/03/13 05:16:17;;;;;;;6.53;1.40;;;;;;;8.32;70.95;95938.75;5012409;28;20032;-78
2021/03/13 05:18:45;;;;;;;3.72;0.55;;;;;;;7.91;71.68;95920.59;4999930;28;20040;-78
2021/03/13 05:21:12;;;;;;;2.90;0.50;;;;;;;8.09;71.08;95919.31;5031425;28;20029;-78
2021/03/13 05:23:37;;;;;;;3.00;0.38;;;;;;;7.90;71.97;95900.91;5031824;28;20144;-77
2021/03/13 05:26:03;;;;;;;3.95;0.70;;;;;;;8.24;71.82;95918.53;5015205;28;20602;-77
2021/03/13 05:28:28;;;;;;;2.53;1.15;;;;;;;7.94;71.54;95909.72;5047999;28;20044;-78
2021/03/13 05:30:54;;;;;;;5.82;0.80;;;;;;;8.24;71.21;95890.00;5031948;28;20063;-78
2021/03/13 05:33:19;;;;;;;3.10;0.80;;;;;;;8.39;70.27;95871.84;5031900;28;20061;-78
2021/03/13 05:35:44;;;;;;;4.82;0.50;;;;;;;8.48;70.87;95898.06;5024280;28;20033;-77
2021/03/13 05:38:10;;;;;;;4.57;0.60;;;;;;;8.14;71.61;95870.06;5031530;28;20036;-78
2021/03/13 05:40:35;;;;;;;3.15;0.60;;;;;;;8.20;71.71;95871.59;5015065;28;20032;-78
2021/03/13 05:43:01;;;;;;;5.03;0.80;;;;;;;8.64;70.15;95870.28;5025042;28;20037;-77
2021/03/13 05:45:26;;;;;;;3.10;0.80;;;;;;;8.40;70.38;95867.44;4994037;28;20032;-77
2021/03/13 05:47:53;;;;;;;2.70;0.55;;;;;;;8.41;70.47;95854.22;5025758;28;20079;-77
2021/03/13 05:50:19;;;;;;;4.72;0.88;;;;;;;8.31;70.84;95862.03;5045322;28;20076;-77
2021/03/13 05:53:04;;;;;;;2.33;0.68;;;;;;;7.87;71.41;95854.78;5014803;28;20700;-77
2021/03/13 05:55:30;;;;;;;4.47;0.80;;;;;;;8.29;70.56;95839.97;4994838;28;20026;-78
2021/03/13 05:57:56;;;;;;;3.17;0.50;;;;;;;8.39;70.19;95845.91;4995301;28;20037;-76
2021/03/13 06:00:22;;;;;;;3.95;0.60;;;;;;;8.29;70.58;95843.31;5011988;28;20059;-79
2021/03/13 06:02:49;;;;;;;3.30;0.70;;;;;;;8.18;70.54;95839.22;5030151;28;20454;-77
2021/03/13 06:05:15;;;;;;;4.07;1.13;;;;;;;8.63;69.56;95830.56;5006829;28;20064;-77
2021/03/13 06:07:44;;;;;;;4.43;0.68;;;;;;;8.39;70.12;95825.16;5008609;28;20507;-77
2021/03/13 06:10:14;;;;;;;2.25;0.60;;;;;;;8.05;70.08;95817.19;5030152;28;20029;-78
2021/03/13 06:12:40;;;;;;;3.22;0.85;;;;;;;8.65;69.86;95814.72;5029965;28;20032;-78
2021/03/13 06:15:06;;;;;;;3.00;0.47;;;;;;;8.44;69.89;95801.06;5029534;28;20025;-78
2021/03/13 06:17:51;;;;;;;2.03;0.50;;;;;;;8.13;70.07;95802.94;5013728;28;20399;-77
2021/03/13 06:20:27;;;;;;;5.13;1.30;;;;;;;8.33;69.88;95802.09;5025726;28;20030;-77
2021/03/13 06:22:53;;;;;;;4.10;0.60;;;;;;;8.60;69.14;95784.41;5023680;28;20040;-77
2021/03/13 06:25:24;;;;;;;3.70;0.50;;;;;;;8.65;69.18;95788.00;5010511;28;20830;-78
2021/03/13 06:27:59;;;;;;;1.67;0.70;;;;;;;7.96;70.94;95765.09;5004726;28;20025;-78
2021/03/13 06:30:27;;;;;;;2.53;0.80;;;;;;;8.05;70.06;95781.69;5031469;28;20033;-79
2021/03/13 06:32:52;;;;;;;3.88;0.57;;;;;;;8.59;68.45;95784.69;5031064;28;20418;-78
2021/03/13 06:35:17;;;;;;;4.88;1.23;;;;;;;8.33;70.27;95751.03;5014075;28;20037;-78
2021/03/13 06:37:43;;;;;;;3.40;0.55;;;;;;;8.15;69.60;95741.22;5048903;28;20037;-78
2021/03/13 06:40:09;;;;;;;3.22;0.52;;;;;;;8.10;69.80;95756.78;4998556;28;20056;-79
2021/03/13 06:42:34;;;;;;;1.45;0.40;;;;;;;8.59;68.72;95756.13;5030996;28;20049;-76
2021/03/13 06:45:07;;;;;;;3.33;0.77;;;;;;;8.42;68.77;95746.84;5029324;28;20180;-80
2021/03/13 06:47:36;;;;;;;4.30;0.50;;;;;;;8.02;69.75;95753.69;4998778;28;20025;-78
2021/03/13 06:50:15;;;;;;;1.65;0.28;;;;;;;8.34;68.11;95754.38;5012633;28;20033;-81
2021/03/13 06:52:50;;;;;;;2.65;0.70;;;;;;;8.29;68.36;95734.41;5047721;28;20044;-78
2021/03/13 06:55:22;;;;;;;3.33;0.68;;;;;;;8.32;67.96;95723.53;5029929;28;20032;-81
2021/03/13 06:57:49;;;;;;;1.63;0.40;;;;;;;8.69;67.62;95744.91;5003893;28;20041;-76
2021/03/13 07:00:27;;;;;;;4.05;1.00;;;;;;;8.34;68.06;95741.41;5013361;28;20069;-79
2021/03/13 07:02:52;;;;;;;4.65;1.17;;;;;;;8.52;67.29;95738.25;5046248;28;20028;-79
2021/03/13 07:05:18;;;;;;;2.97;0.57;;;;;;;8.55;66.91;95748.13;5013544;28;20041;-78
2021/03/13 07:07:43;;;;;;;1.73;0.70;;;;;;;8.57;66.34;95720.09;5016315;28;20048;-79
2021/03/13 07:10:09;;;;;;;4.65;1.17;;;;;;;8.51;66.53;95715.94;5012467;28;20120;-79
2021/03/13 07:12:40;;;;;;;3.20;0.47;;;;;;;8.47;66.31;95734.91;5013651;28;20025;-80
2021/03/13 07:15:22;;;;;;;4.50;0.45;;;;;;;8.25;66.95;95733.41;5014839;28;20013;-80
2021/03/13 07:18:00;;;;;;;6.38;1.30;;;;;;;8.09;66.92;95705.97;5008361;28;20531;-79
2021/03/13 07:20:28;;;;;;;2.35;0.40;;;;;;;8.96;65.31;95731.53;4995028;28;20041;-78
2021/03/13 07:22:55;;;;;;;2.47;0.60;;;;;;;9.11;64.28;95743.66;5034365;28;20070;-79
2021/03/13 07:25:23;;;;;;;3.55;0.40;;;;;;;9.05;64.61;95709.16;5033890;28;20440;-78
2021/03/13 07:27:56;;;;;;;6.68;0.77;;;;;;;8.72;64.80;95728.81;5016640;28;20498;-79
2021/03/13 07:30:23;;;;;;;2.67;0.75;;;;;;;8.97;65.23;95733.88;5020745;28;20534;-79
2021/03/13 07:32:51;;;;;;;3.10;0.63;;;;;;;9.03;63.91;95732.03;4998512;28;20029;-80
2021/03/13 07:35:19;;;;;;;2.88;0.43;;;;;;;8.92;64.56;95714.97;5038836;28;20371;-79
2021/03/13 07:37:45;;;;;;;2.67;0.50;;;;;;;8.99;64.13;95731.00;5018538;28;20083;-79
2021/03/13 07:40:14;;;;;;;3.22;0.50;;;;;;;8.84;64.63;95713.69;4999534;28;20061;-80
2021/03/13 07:42:40;;;;;;;2.85;0.60;;;;;;;8.97;63.54;95717.53;5017327;28;20033;-80
2021/03/13 07:45:07;;;;;;;4.25;0.60;;;;;;;8.81;64.87;95728.00;5028479;28;20545;-79
2021/03/13 07:47:33;;;;;;;4.88;0.40;;;;;;;8.89;64.02;95707.72;4999315;28;20049;-79
2021/03/13 07:50:01;;;;;;;3.20;0.50;;;;;;;9.06;63.58;95718.50;5017705;28;20032;-80
2021/03/13 07:52:27;;;;;;;1.73;0.57;;;;;;;9.41;62.52;95719.28;5035356;28;20390;-79
2021/03/13 07:54:53;;;;;;;1.73;0.30;;;;;;;9.36;63.42;95719.34;5036476;28;20021;-78
2021/03/13 07:57:19;;;;;;;2.58;0.30;;;;;;;9.42;64.11;95736.41;5033855;28;20486;-79
2021/03/13 07:59:51;;;;;;;3.30;0.38;;;;;;;9.20;64.63;95726.44;5017203;28;20040;-78
2021/03/13 08:02:29;;;;;;;2.70;0.45;;;;;;;8.94;64.76;95724.00;5035561;28;20036;-78
2021/03/13 08:05:03;;;;;;;3.67;0.40;;;;;;;9.16;65.06;95726.22;5048710;28;20406;-80
2021/03/13 08:07:49;;;;;;;2.08;0.65;;;;;;;8.77;66.41;95726.19;5015431;28;20135;-81
2021/03/13 08:10:44;;;;;;;1.73;0.50;;;;;;;9.07;65.89;95724.47;5033048;28;20025;-79
2021/03/13 08:13:13;;;;;;;2.10;0.50;;;;;;;8.95;66.58;95711.84;5000285;28;20387;-79
2021/03/13 08:15:39;;;;;;;2.40;0.50;;;;;;;9.00;66.94;95732.56;5032785;28;20086;-80
2021/03/13 08:18:09;;;;;;;3.70;0.70;;;;;;;8.59;66.94;95694.66;5016338;28;20033;-79
2021/03/13 08:20:36;;;;;;;2.00;0.47;;;;;;;9.00;67.01;95697.00;5031971;28;20029;-78
2021/03/13 08:23:10;;;;;;;4.35;0.60;;;;;;;8.92;66.43;95689.00;5032039;28;20032;-79
2021/03/13 08:25:51;;;;;;;3.83;0.77;;;;;;;8.74;67.61;95688.59;5030809;28;20029;-79
2021/03/13 08:28:45;;;;;;;2.72;0.38;;;;;;;8.77;67.44;95675.09;5011413;28;20489;-79
2021/03/13 08:31:27;;;;;;;3.28;0.40;;;;;;;8.76;67.98;95670.16;4998501;28;20175;-80
2021/03/13 08:34:02;;;;;;;2.33;0.60;;;;;;;9.12;65.89;95668.09;5050292;28;20115;-78
2021/03/13 08:36:33;;;;;;;3.72;0.50;;;;;;;9.30;65.64;95676.25;5049498;28;20457;-80
2021/03/13 08:39:00;;;;;;;2.58;0.30;;;;;;;9.24;64.97;95659.19;5013056;28;20034;-80
2021/03/13 08:44:07;;;;;;;1.58;0.20;;;;;;;9.24;65.65;95664.38;5043790;28;20029;-79
2021/03/13 08:46:39;;;;;;;2.17;0.75;;;;;;;9.08;64.94;95654.13;5006587;28;20036;-80
2021/03/13 08:49:05;;;;;;;2.15;0.47;;;;;;;9.47;65.75;95658.44;5026589;28;20155;-79
2021/03/13 08:51:30;;;;;;;2.13;0.60;;;;;;;8.96;66.62;95680.41;5012950;28;20365;-80
2021/03/13 08:53:56;;;;;;;3.38;0.20;;;;;;;9.21;66.18;95657.13;5015587;28;20021;-79
2021/03/13 08:56:42;;;;;;;0.80;0.30;;;;;;;8.73;67.47;95662.91;5012391;28;20041;-79
2021/03/13 08:59:17;;;;;;;;;;;;;;;9.00;66.74;95659.88;5010362;28;20049;-79
2021/03/13 09:02:04;;;;;;;4.95;1.23;;;;;;;9.08;66.23;95650.72;5032717;28;19960;-79
2021/03/13 09:04:31;;;;;;;1.33;0.40;;;;;;;9.22;67.17;95638.69;5014644;28;20481;-79
2021/03/13 09:06:58;;;;;;;1.90;0.40;;;;;;;9.51;66.87;95638.66;5015618;28;20036;-76
2021/03/13 09:09:25;;;;;;;3.25;0.40;;;;;;;9.35;65.85;95621.66;4996039;28;20029;-76
2021/03/13 09:11:55;;;;;;;1.75;0.20;;;;;;;8.95;68.23;95626.16;4995946;28;20264;-82
2021/03/13 09:14:23;;;;;;;1.25;0.35;;;;;;;9.38;66.51;95627.09;5030840;28;20029;-76
2021/03/13 09:16:52;;;;;;;1.08;0.40;;;;;;;8.93;66.70;95618.66;5040177;28;21573;-79
2021/03/13 09:19:19;;;;;;;1.90;0.20;;;;;;;9.06;67.47;95612.03;5021210;28;20035;-79
2021/03/13 09:21:51;;;;;;;1.67;0.45;;;;;;;8.94;67.37;95607.22;5011808;28;20029;-78
2021/03/13 09:24:27;;;;;;;2.72;0.30;;;;;;;8.74;67.99;95610.75;5009788;28;20403;-80
2021/03/13 09:26:55;;;;;;;2.10;0.40;;;;;;;8.65;68.53;95598.63;5032553;28;20079;-80
2021/03/13 09:29:32;;;;;;;1.55;0.20;;;;;;;8.34;69.46;95584.00;5017236;28;20024;-79
2021/03/13 09:32:09;;;;;;;2.22;0.30;;;;;;;8.35;69.86;95632.22;5014531;28;20029;-79
2021/03/13 09:34:37;;;;;;;1.48;0.30;;;;;;;9.11;67.48;95609.41;4997374;28;20075;-80
2021/03/13 09:37:16;;;;;;;1.90;0.30;;;;;;;8.46;69.02;95601.84;5016366;28;20426;-79
2021/03/13 09:39:46;;;;;;;0.80;0.20;;;;;;;9.09;67.41;95600.34;5011570;28;20036;-80
2021/03/13 09:42:16;;;;;;;1.02;0.15;;;;;;;9.23;67.52;95598.66;4995807;28;20045;-79
2021/03/13 09:44:57;;;;;;;1.33;0.40;;;;;;;9.02;68.09;95590.28;4997008;28;20025;-79
2021/03/13 09:47:25;;;;;;;1.83;0.40;;;;;;;8.98;68.27;95600.44;4998919;28;20086;-79
2021/03/13 09:50:03;;;;;;;1.50;0.28;;;;;;;8.58;69.52;95575.56;5012776;28;20043;-80
2021/03/13 09:52:30;;;;;;;0.43;0.20;;;;;;;9.12;67.47;95579.81;5013746;28;20432;-78
2021/03/13 09:55:04;;;;;;;0.52;0.40;;;;;;;8.48;69.31;95576.41;5014656;28;20492;-80
2021/03/13 09:57:29;;;;;;;1.20;0.30;;;;;;;8.89;68.85;95585.72;5014723;28;20457;-79
2021/03/13 09:59:55;;;;;;;1.35;0.40;;;;;;;8.81;69.58;95574.13;5015030;28;20036;-80
2021/03/13 10:02:21;;;;;;;2.72;0.30;;;;;;;9.12;68.17;95564.22;5014587;28;20523;-79
2021/03/13 10:04:49;;;;;;;1.30;0.38;;;;;;;9.09;67.85;95574.41;5014570;28;20028;-79
2021/03/13 10:07:15;;;;;;;2.60;0.20;;;;;;;8.68;69.75;95569.53;4996438;28;20140;-79
2021/03/13 10:10:00;;;;;;;2.22;0.30;;;;;;;8.20;71.04;95570.84;4998415;28;20128;-80
2021/03/13 10:12:28;;;;;;;2.93;0.20;;;;;;;8.77;69.47;95566.09;5012629;28;20029;-80
2021/03/13 10:14:54;;;;;;;1.98;0.57;;;;;;;8.83;69.89;95540.88;5047221;28;20120;-79
2021/03/13 10:17:20;;;;;;;0.82;0.30;;;;;;;9.36;69.18;95555.69;4998858;28;20120;-79
2021/03/13 10:19:46;;;;;;;1.33;0.47;;;;;;;9.13;69.18;95552.00;5013954;28;20028;-80
2021/03/13 10:22:14;;;;;;;1.00;0.40;;;;;;;8.79;69.13;95545.03;5031114;28;20037;-80
2021/03/13 10:24:41;;;;;;;0.73;0.28;;;;;;;8.86;69.58;95548.13;5030212;28;20487;-82
2021/03/13 10:27:07;;;;;;;1.75;0.40;;;;;;;8.90;68.71;95556.91;5020378;28;20029;-82
2021/03/13 10:29:33;;;;;;;0.65;0.22;;;;;;;9.17;68.76;95566.78;5014526;28;20032;-79
2021/03/13 10:32:03;;;;;;;1.23;0.20;;;;;;;8.86;68.61;95594.84;5013359;28;20091;-79
2021/03/13 10:34:35;;;;;;;0.88;0.63;;;;;;;8.96;68.97;95592.16;5014231;28;20375;-79
2021/03/13 10:37:01;;;;;;;0.98;0.30;;;;;;;9.24;69.16;95615.03;5012299;28;20509;-80
2021/03/13 10:39:27;;;;;;;1.02;0.30;;;;;;;9.24;67.96;95622.81;5030351;28;20124;-80
2021/03/13 10:41:59;;;;;;;1.02;0.40;;;;;;;9.13;68.17;95643.69;4997560;28;20388;-79
2021/03/13 10:44:25;;;;;;;0.38;0.20;;;;;;;9.28;67.30;95675.75;5031148;28;20029;-79
2021/03/13 10:46:50;;;;;;;1.10;0.30;;;;;;;9.24;67.13;95705.94;5030566;28;20423;-81
2021/03/13 10:49:24;;;;;;;2.42;0.30;;;;;;;9.08;67.32;95767.56;5000843;28;20029;-79
2021/03/13 10:51:53;;;;;;;0.93;0.30;;;;;;;8.39;65.13;95793.25;5034583;28;20438;-83
2021/03/13 10:54:23;;;;;;;1.27;0.10;;;;;;;7.32;66.14;95810.44;5015133;28;20535;-82
2021/03/13 10:56:48;;;;;;;1.30;0.10;;;;;;;6.55;67.12;95805.03;5034854;28;20047;-84
2021/03/13 10:59:14;;;;;;;1.48;0.20;;;;;;;6.23;68.89;95797.38;5034874;28;20489;-83
2021/03/13 11:01:46;;;;;;;1.08;0.10;;;;;;;5.72;70.02;95808.09;5002198;28;20032;-80
2021/03/13 11:04:12;;;;;;;0.70;0.15;;;;;;;5.89;70.16;95818.31;4999400;28;20551;-83
2021/03/13 11:06:38;;;;;;;0.90;0.10;;;;;;;6.21;69.67;95814.94;5035070;28;20036;-81
2021/03/13 11:09:09;;;;;;;0.30;0.10;;;;;;;6.06;69.92;95811.22;5018033;28;20127;-80
2021/03/13 11:11:35;;;;;;;0.20;0.00;;;;;;;6.03;68.77;95834.97;5031240;28;20029;-81
2021/03/13 11:14:02;;;;;;;0.65;0.00;;;;;;;5.77;69.71;95833.97;5014804;28;20044;-82
2021/03/13 11:16:28;;;;;;;0.52;0.20;;;;;;;5.87;69.29;95846.19;5017630;28;20041;-82
2021/03/13 11:18:56;;;;;;;0.10;0.00;;;;;;;5.78;70.45;95867.31;5015613;28;20063;-82
2021/03/13 11:21:23;;;;;;;1.60;0.10;;;;;;;5.73;70.14;95869.84;5046920;28;20044;-81
2021/03/13 11:23:51;;;;;;;0.28;0.00;;;;;;;5.71;70.47;95859.00;5017127;28;20112;-82
2021/03/13 11:26:19;;;;;;;0.25;0.10;;;;;;;5.62;69.69;95853.50;5017731;28;20138;-81
2021/03/13 11:28:48;;;;;;;0.65;0.10;;;;;;;6.10;69.11;95838.13;4995727;28;20029;-83
2021/03/13 11:31:15;;;;;;;0.43;0.10;;;;;;;6.17;69.00;95836.09;5016367;28;20106;-83
2021/03/13 11:33:42;;;;;;;0.25;0.10;;;;;;;5.94;70.54;95813.94;5006876;28;20032;-82
2021/03/13 11:36:10;;;;;;;1.45;0.17;;;;;;;5.97;70.26;95776.56;5028964;28;20060;-83
2021/03/13 11:38:37;;;;;;;0.20;0.10;;;;;;;6.38;69.90;95772.38;5031084;28;20025;-81
2021/03/13 11:41:05;;;;;;;0.70;0.10;;;;;;;6.35;70.42;95774.69;5001555;28;20039;-81
2021/03/13 11:43:33;;;;;;;1.10;0.10;;;;;;;6.27;70.22;95790.66;4991161;28;20049;-81
2021/03/13 11:45:59;;;;;;;1.35;0.10;;;;;;;6.63;70.51;95798.59;5001156;28;20028;-80
2021/03/13 11:48:25;;;;;;;0.65;0.20;;;;;;;6.53;70.68;95786.41;5009431;28;20388;-81
2021/03/13 11:50:52;;;;;;;1.88;0.80;;;;;;;6.63;70.71;95783.06;5033235;28;20428;-81
2021/03/13 11:53:18;;;;;;;0.52;0.10;;;;;;;6.85;70.26;95796.59;5003544;28;20404;-82